Time;durP1;ratioP1;P1;durP2;ratioP2;P2;SDS_P1;SDS_P2;PMS_P1;PMS_P2;Temp;Humidity;BMP_temperature;BMP_pressure;BME280_temperature;BME280_humidity;BME280_pressure;Samples;Min_cycle;Max_cycle;Signal;HPM_P1;HPM_P2
2021/07/08 00:02:16;;;;;;;5.53;2.58;;;;;;;17.68;45.42;99413.34;5074631;28;20048;-77
2021/07/08 00:04:43;;;;;;;8.88;2.97;;;;;;;17.75;45.44;99412.66;5092591;28;20048;-77
2021/07/08 00:07:10;;;;;;;5.97;2.60;;;;;;;17.72;45.25;99417.41;5092479;28;20135;-81
2021/07/08 00:09:37;;;;;;;10.20;2.55;;;;;;;17.72;45.23;99412.00;5025604;28;20457;-80
2021/07/08 00:12:03;;;;;;;10.50;2.45;;;;;;;17.71;45.43;99407.63;5058025;28;20478;-78
2021/07/08 00:14:29;;;;;;;4.13;2.28;;;;;;;17.67;45.61;99406.25;5092344;28;20143;-77
2021/07/08 00:16:55;;;;;;;5.38;2.40;;;;;;;17.65;45.65;99410.97;5074175;28;20131;-78
2021/07/08 00:19:21;;;;;;;10.60;2.53;;;;;;;17.67;45.47;99400.00;5058141;28;20043;-79
2021/07/08 00:21:47;;;;;;;5.47;1.95;;;;;;;17.70;45.68;99407.78;5057989;28;20051;-79
2021/07/08 00:24:13;;;;;;;4.65;2.53;;;;;;;17.67;45.71;99408.09;5092514;28;20051;-79
2021/07/08 00:26:39;;;;;;;11.23;2.25;;;;;;;17.61;45.42;99412.34;5074282;28;20085;-78
2021/07/08 00:29:08;;;;;;;6.35;2.22;;;;;;;17.60;45.78;99407.94;5058517;28;20032;-78
2021/07/08 00:31:34;;;;;;;5.70;2.50;;;;;;;17.57;45.81;99412.84;5074450;28;20048;-78
2021/07/08 00:34:01;;;;;;;7.05;2.17;;;;;;;17.50;45.98;99411.81;5074490;28;20545;-78
2021/07/08 00:36:29;;;;;;;5.30;2.40;;;;;;;17.62;45.73;99422.13;5074382;28;20556;-79
2021/07/08 00:38:55;;;;;;;7.20;2.40;;;;;;;17.68;45.71;99410.66;5024701;28;20087;-79
2021/07/08 00:41:21;;;;;;;3.78;2.20;;;;;;;17.67;45.85;99425.16;5074529;28;20040;-79
2021/07/08 00:43:51;;;;;;;8.23;2.30;;;;;;;17.75;45.70;99428.91;5041605;28;20052;-79
2021/07/08 00:46:20;;;;;;;3.17;2.38;;;;;;;17.72;45.70;99438.22;5074852;28;20036;-79
2021/07/08 00:48:46;;;;;;;12.45;2.17;;;;;;;17.66;45.88;99428.03;5057695;28;20098;-80
2021/07/08 00:51:12;;;;;;;4.30;2.20;;;;;;;17.59;46.09;99433.25;5076916;28;20044;-79
2021/07/08 00:53:39;;;;;;;5.32;2.08;;;;;;;17.58;46.23;99422.63;5096132;28;20490;-79
2021/07/08 00:56:05;;;;;;;5.53;2.30;;;;;;;17.56;46.10;99416.53;5061076;28;20127;-78
2021/07/08 00:58:31;;;;;;;10.38;2.83;;;;;;;17.51;46.42;99411.63;5044578;28;20101;-78
2021/07/08 01:00:57;;;;;;;7.25;3.15;;;;;;;17.50;46.25;99414.50;5095955;28;20520;-79
2021/07/08 01:03:23;;;;;;;7.03;3.30;;;;;;;17.58;46.10;99419.94;5077508;28;20040;-79
2021/07/08 01:05:51;;;;;;;8.88;2.35;;;;;;;17.61;46.28;99425.84;5061220;28;20040;-79
2021/07/08 01:08:17;;;;;;;5.45;2.30;;;;;;;17.60;46.10;99409.78;5044685;28;20131;-80
2021/07/08 01:10:44;;;;;;;8.82;2.22;;;;;;;17.58;46.20;99420.75;5077214;28;20040;-78
2021/07/08 01:13:14;;;;;;;6.82;2.55;;;;;;;17.61;46.12;99409.63;5044151;28;20059;-80
2021/07/08 01:15:40;;;;;;;;;;;;;;;17.62;46.52;99421.28;5044263;28;20060;-80
2021/07/08 01:18:06;;;;;;;7.95;2.78;;;;;;;17.57;46.43;99413.69;5044483;28;19993;-81
2021/07/08 01:20:32;;;;;;;3.85;2.20;;;;;;;17.59;46.57;99419.75;5077960;28;20047;-80
2021/07/08 01:22:58;;;;;;;5.70;2.53;;;;;;;17.64;46.53;99419.25;5060921;28;20514;-80
2021/07/08 01:25:26;;;;;;;6.35;2.40;;;;;;;17.57;46.52;99416.38;5060749;28;20047;-80
2021/07/08 01:27:53;;;;;;;4.75;2.85;;;;;;;17.62;46.73;99416.72;5060862;28;20047;-80
2021/07/08 01:30:19;;;;;;;5.93;2.47;;;;;;;17.76;46.34;99427.94;5060583;28;20040;-82
2021/07/08 01:32:45;;;;;;;7.68;2.72;;;;;;;17.77;46.59;99429.63;5027538;28;20032;-82
2021/07/08 01:35:11;;;;;;;9.20;2.70;;;;;;;17.87;46.25;99414.94;5077350;28;20138;-80
2021/07/08 01:37:37;;;;;;;5.93;2.45;;;;;;;18.00;46.20;99421.69;5077194;28;20036;-81
2021/07/08 01:40:05;;;;;;;6.90;2.55;;;;;;;17.90;46.55;99424.56;5060358;28;20138;-80
2021/07/08 01:42:31;;;;;;;12.80;2.30;;;;;;;17.98;46.58;99415.59;5060623;28;20042;-80
2021/07/08 01:44:57;;;;;;;10.98;2.65;;;;;;;18.06;46.61;99418.31;5043910;28;20044;-80
2021/07/08 01:47:23;;;;;;;6.05;2.25;;;;;;;18.14;45.91;99416.47;5060085;28;20054;-78
2021/07/08 01:49:49;;;;;;;5.28;2.20;;;;;;;18.24;45.79;99415.44;5060304;28;20048;-81
2021/07/08 01:52:15;;;;;;;10.75;2.55;;;;;;;18.19;46.10;99411.38;5060218;28;20418;-79
2021/07/08 01:54:41;;;;;;;6.00;2.50;;;;;;;18.23;46.17;99414.59;5094753;28;20031;-79
2021/07/08 01:57:07;;;;;;;6.78;2.83;;;;;;;18.31;46.04;99416.44;5043213;28;20040;-79
2021/07/08 01:59:33;;;;;;;8.82;3.13;;;;;;;18.44;45.88;99417.63;5076548;28;20470;-78
2021/07/08 02:02:00;;;;;;;3.78;2.33;;;;;;;18.53;46.13;99420.31;5094208;28;20051;-77
2021/07/08 02:04:26;;;;;;;7.85;2.88;;;;;;;18.64;45.70;99422.66;5094492;28;20422;-78
2021/07/08 02:06:52;;;;;;;11.10;2.47;;;;;;;18.72;45.54;99416.41;5094561;28;20040;-77
2021/07/08 02:09:18;;;;;;;6.40;2.72;;;;;;;18.82;45.63;99419.78;5094665;28;20048;-78
2021/07/08 02:11:44;;;;;;;6.10;2.60;;;;;;;18.90;45.51;99425.16;5043013;28;20068;-78
2021/07/08 02:14:10;;;;;;;7.78;2.42;;;;;;;18.92;45.19;99420.41;5094113;28;20052;-79
2021/07/08 02:16:36;;;;;;;6.55;2.50;;;;;;;18.98;45.39;99417.00;5059560;28;20084;-76
2021/07/08 02:19:04;;;;;;;12.90;2.95;;;;;;;18.95;45.37;99414.63;5075799;28;20393;-78
2021/07/08 02:21:30;;;;;;;8.43;2.75;;;;;;;18.96;45.32;99416.34;5059954;28;20180;-79
2021/07/08 02:23:56;;;;;;;5.72;3.03;;;;;;;18.98;45.56;99419.69;5059298;28;20577;-77
2021/07/08 02:26:22;;;;;;;6.65;2.75;;;;;;;18.96;45.59;99421.75;5093759;28;20462;-75
2021/07/08 02:28:48;;;;;;;6.78;2.83;;;;;;;19.02;45.58;99415.63;5076012;28;20094;-76
2021/07/08 02:31:14;;;;;;;10.68;2.95;;;;;;;18.99;45.61;99404.28;5093457;28;20048;-76
2021/07/08 02:33:40;;;;;;;4.90;2.33;;;;;;;19.03;45.63;99420.03;5076105;28;20135;-75
2021/07/08 02:36:06;;;;;;;6.88;2.60;;;;;;;19.08;45.58;99420.34;5042403;28;20566;-76
2021/07/08 02:38:32;;;;;;;7.65;2.58;;;;;;;19.07;45.61;99426.81;5093545;28;20093;-78
2021/07/08 02:40:58;;;;;;;10.10;2.60;;;;;;;19.06;45.51;99430.50;5093749;28;20469;-78
2021/07/08 02:43:24;;;;;;;7.85;2.90;;;;;;;19.09;45.68;99432.03;5093364;28;20040;-77
2021/07/08 02:45:50;;;;;;;9.85;2.70;;;;;;;19.05;45.90;99423.41;5093684;28;20437;-76
2021/07/08 02:48:18;;;;;;;10.43;3.10;;;;;;;19.08;45.95;99420.34;5075563;28;20048;-78
2021/07/08 02:50:45;;;;;;;6.43;3.17;;;;;;;19.09;46.11;99427.44;5075561;28;20079;-77
2021/07/08 02:53:11;;;;;;;6.75;2.67;;;;;;;19.12;46.00;99426.25;5075103;28;20402;-77
2021/07/08 02:55:38;;;;;;;11.70;2.65;;;;;;;19.21;46.09;99425.19;5093226;28;20044;-78
2021/07/08 02:58:04;;;;;;;8.25;2.70;;;;;;;19.32;45.53;99427.50;5075680;28;20035;-79
2021/07/08 03:00:32;;;;;;;9.30;2.70;;;;;;;19.43;45.34;99423.56;5058341;28;20055;-76
2021/07/08 03:02:58;;;;;;;12.23;2.70;;;;;;;19.45;45.60;99431.53;5074920;28;20040;-77
2021/07/08 03:05:24;;;;;;;13.30;2.63;;;;;;;19.44;45.28;99422.53;5025154;28;20398;-77
2021/07/08 03:07:50;;;;;;;7.03;2.83;;;;;;;19.56;45.51;99426.56;5075019;28;20143;-77
2021/07/08 03:10:19;;;;;;;11.32;2.90;;;;;;;19.73;44.91;99429.19;5093215;28;20517;-77
2021/07/08 03:12:45;;;;;;;9.70;2.40;;;;;;;19.70;44.89;99424.97;5057836;28;20032;-78
2021/07/08 03:15:11;;;;;;;14.05;3.03;;;;;;;19.81;44.66;99423.69;5074795;28;20086;-77
2021/07/08 03:17:38;;;;;;;6.65;2.47;;;;;;;19.83;44.63;99437.94;5075286;28;20143;-77
2021/07/08 03:20:07;;;;;;;8.23;2.60;;;;;;;19.98;44.34;99419.88;5075237;28;20125;-78
2021/07/08 03:22:33;;;;;;;24.42;3.08;;;;;;;20.10;44.07;99426.53;5075057;28;20047;-78
2021/07/08 03:24:59;;;;;;;9.10;2.92;;;;;;;20.31;43.64;99428.59;5075318;28;20384;-77
2021/07/08 03:27:25;;;;;;;8.20;2.80;;;;;;;20.37;43.41;99433.25;5092552;28;20050;-77
2021/07/08 03:29:51;;;;;;;14.85;3.50;;;;;;;20.39;43.42;99422.22;5074738;28;20460;-78
2021/07/08 03:32:16;;;;;;;7.30;2.65;;;;;;;20.46;43.48;99422.31;5074821;28;20040;-78
2021/07/08 03:34:42;;;;;;;14.80;3.47;;;;;;;20.44;43.25;99414.38;5092692;28;20126;-77
2021/07/08 03:37:08;;;;;;;12.48;3.80;;;;;;;20.51;43.09;99417.22;5041633;28;20044;-78
2021/07/08 03:39:34;;;;;;;17.08;2.95;;;;;;;20.58;43.00;99424.44;5074862;28;20138;-77
2021/07/08 03:42:00;;;;;;;8.48;3.05;;;;;;;20.53;42.81;99418.69;5092568;28;20048;-77
2021/07/08 03:44:26;;;;;;;7.30;3.20;;;;;;;20.51;42.84;99418.06;5092566;28;20491;-77
2021/07/08 03:46:52;;;;;;;11.55;3.65;;;;;;;20.56;42.77;99407.47;5074329;28;20044;-77
2021/07/08 03:49:18;;;;;;;10.43;3.92;;;;;;;20.72;42.64;99413.75;5057857;28;20127;-76
2021/07/08 03:51:44;;;;;;;11.50;4.32;;;;;;;20.83;42.29;99426.88;5092229;28;20384;-77
2021/07/08 03:54:10;;;;;;;14.32;4.35;;;;;;;20.73;42.66;99419.03;5074459;28;20105;-77
2021/07/08 03:56:35;;;;;;;10.13;3.83;;;;;;;20.91;42.29;99412.38;5074450;28;20040;-77
2021/07/08 03:59:02;;;;;;;14.20;4.40;;;;;;;20.77;42.49;99414.06;5008662;28;20483;-77
2021/07/08 04:01:27;;;;;;;10.30;4.28;;;;;;;20.95;42.13;99413.66;5092497;28;20054;-77
2021/07/08 04:03:53;;;;;;;13.07;3.90;;;;;;;20.80;42.19;99411.81;5074447;28;20079;-77
2021/07/08 04:06:19;;;;;;;19.25;4.60;;;;;;;20.95;41.95;99416.38;5057700;28;20467;-78
2021/07/08 04:08:45;;;;;;;15.35;4.22;;;;;;;21.15;41.79;99409.38;5092467;28;20073;-79
2021/07/08 04:11:11;;;;;;;13.32;5.30;;;;;;;21.21;41.44;99405.91;5072989;28;20048;-77
2021/07/08 04:13:37;;;;;;;12.80;4.47;;;;;;;21.34;41.51;99408.81;5073524;28;20048;-79
2021/07/08 04:16:03;;;;;;;13.35;5.13;;;;;;;21.43;41.11;99409.53;5040214;28;20439;-78
2021/07/08 04:18:29;;;;;;;14.48;5.90;;;;;;;21.52;40.88;99405.66;5074291;28;20166;-78
2021/07/08 04:20:55;;;;;;;12.85;5.53;;;;;;;21.63;40.67;99411.66;5091949;28;20398;-77
2021/07/08 04:23:21;;;;;;;43.85;7.78;;;;;;;21.77;40.32;99410.72;5074215;28;20188;-77
2021/07/08 04:25:47;;;;;;;13.43;6.25;;;;;;;21.78;40.19;99393.41;5095975;28;20043;-78
2021/07/08 04:28:13;;;;;;;15.15;7.93;;;;;;;22.00;39.31;99408.69;5098951;28;20043;-78
2021/07/08 04:30:39;;;;;;;19.65;8.07;;;;;;;22.14;39.31;99406.09;5075416;28;20036;-79
2021/07/08 04:33:06;;;;;;;20.30;7.97;;;;;;;22.23;39.26;99421.28;5077987;28;20036;-78
2021/07/08 04:35:36;;;;;;;16.92;8.18;;;;;;;22.36;38.43;99410.47;5095550;28;20075;-77
2021/07/08 04:38:02;;;;;;;24.55;10.40;;;;;;;22.42;37.83;99406.97;5096250;28;20044;-78
2021/07/08 04:40:27;;;;;;;28.75;10.52;;;;;;;22.61;37.77;99405.44;5077986;28;20055;-80
2021/07/08 04:42:54;;;;;;;17.58;9.60;;;;;;;22.75;37.64;99418.13;5061110;28;20055;-82
2021/07/08 04:45:20;;;;;;;16.48;10.80;;;;;;;22.90;36.83;99415.25;5044243;28;20097;-80
2021/07/08 04:47:46;;;;;;;19.60;11.27;;;;;;;22.77;36.87;99410.56;5077999;28;20047;-78
2021/07/08 04:50:15;;;;;;;24.75;11.15;;;;;;;23.01;37.09;99412.00;5077660;28;20486;-81
2021/07/08 04:52:41;;;;;;;28.25;11.00;;;;;;;23.29;36.41;99419.28;5079151;28;20563;-80
2021/07/08 04:55:08;;;;;;;27.90;12.35;;;;;;;23.37;36.07;99410.91;5095491;28;20044;-79
2021/07/08 04:57:34;;;;;;;17.00;12.38;;;;;;;23.70;35.88;99416.50;5061386;28;20505;-81
2021/07/08 05:00:00;;;;;;;26.05;13.00;;;;;;;23.93;34.70;99407.13;5060833;28;20040;-81
2021/07/08 05:02:26;;;;;;;32.28;13.18;;;;;;;23.78;35.19;99412.75;5095394;28;20054;-80
2021/07/08 05:04:51;;;;;;;24.73;12.23;;;;;;;23.69;35.10;99413.97;5095927;28;20580;-80
2021/07/08 05:07:17;;;;;;;19.70;11.35;;;;;;;23.62;35.40;99413.09;5044022;28;20070;-82
2021/07/08 05:09:43;;;;;;;23.83;13.35;;;;;;;23.85;34.93;99416.34;5077119;28;20498;-81
2021/07/08 05:12:09;;;;;;;20.50;12.25;;;;;;;23.61;35.10;99406.78;5076979;28;20508;-80
2021/07/08 05:14:35;;;;;;;24.73;13.00;;;;;;;23.51;35.67;99409.91;5076804;28;20079;-81
2021/07/08 05:17:03;;;;;;;21.45;12.85;;;;;;;23.79;35.24;99408.13;5043647;28;20090;-81
2021/07/08 05:19:29;;;;;;;34.40;13.48;;;;;;;23.72;35.08;99408.09;5077132;28;20040;-82
2021/07/08 05:21:55;;;;;;;28.10;14.35;;;;;;;23.95;34.86;99408.56;5095057;28;20063;-80
2021/07/08 05:24:23;;;;;;;28.48;15.95;;;;;;;24.05;33.86;99412.78;5076766;28;20058;-80
2021/07/08 05:26:50;;;;;;;31.20;15.50;;;;;;;24.01;34.25;99411.53;5077979;28;20051;-79
2021/07/08 05:29:16;;;;;;;27.30;14.52;;;;;;;23.96;34.32;99413.00;5061774;28;20166;-79
2021/07/08 05:31:42;;;;;;;24.98;14.65;;;;;;;23.86;34.18;99407.09;5060069;28;20078;-82
2021/07/08 05:34:08;;;;;;;36.63;15.43;;;;;;;23.91;34.53;99406.47;5060579;28;20048;-81
2021/07/08 05:36:34;;;;;;;24.30;14.23;;;;;;;24.09;34.55;99398.50;5087088;27;20054;-79
2021/07/08 05:39:00;;;;;;;22.63;14.57;;;;;;;24.32;34.21;99403.56;5116963;27;20046;-80
2021/07/08 05:41:26;;;;;;;28.70;14.30;;;;;;;24.39;33.95;99404.44;5117279;27;20035;-79
2021/07/08 05:43:52;;;;;;;30.23;15.02;;;;;;;24.61;33.64;99406.94;5116385;27;20047;-81
2021/07/08 05:46:18;;;;;;;30.10;16.40;;;;;;;24.45;33.22;99402.75;5116948;27;20035;-81
2021/07/08 05:48:44;;;;;;;25.40;15.32;;;;;;;24.49;34.01;99403.19;5117039;27;20047;-80
2021/07/08 05:51:12;;;;;;;23.17;14.93;;;;;;;24.90;33.10;99402.91;5099777;27;20075;-79
2021/07/08 05:53:37;;;;;;;30.00;16.23;;;;;;;24.83;32.87;99405.66;5135498;27;20129;-78
2021/07/08 05:56:04;;;;;;;33.17;16.55;;;;;;;24.39;33.64;99407.16;5117020;27;20492;-76
2021/07/08 05:58:30;;;;;;;29.33;17.05;;;;;;;24.44;33.72;99401.91;5134472;27;20043;-77
2021/07/08 06:00:57;;;;;;;30.50;18.10;;;;;;;24.62;33.77;99409.47;5082518;27;20047;-79
2021/07/08 06:03:23;;;;;;;28.65;17.38;;;;;;;25.03;33.57;99405.59;5096366;28;20062;-77
2021/07/08 06:05:50;;;;;;;31.00;17.00;;;;;;;25.11;33.23;99399.06;5097882;28;20048;-80
2021/07/08 06:08:16;;;;;;;23.98;15.60;;;;;;;25.27;33.32;99393.09;5076015;28;20040;-77
2021/07/08 06:10:42;;;;;;;25.60;15.82;;;;;;;25.58;32.68;99397.00;5093752;28;20044;-77
2021/07/08 06:13:09;;;;;;;33.45;15.98;;;;;;;25.66;32.65;99402.19;5092942;28;20441;-78
2021/07/08 06:15:35;;;;;;;37.80;19.27;;;;;;;25.71;32.29;99399.63;5075699;28;20060;-78
2021/07/08 06:18:01;;;;;;;28.48;18.92;;;;;;;25.77;32.30;99396.03;5075883;28;20044;-77
2021/07/08 06:20:27;;;;;;;29.10;18.85;;;;;;;25.62;32.58;99392.75;5075627;28;20134;-78
2021/07/08 06:22:53;;;;;;;33.40;20.90;;;;;;;25.53;32.33;99394.03;5093480;28;20082;-79
2021/07/08 06:25:19;;;;;;;31.73;18.60;;;;;;;25.25;33.29;99402.59;5093577;28;20042;-79
2021/07/08 06:27:45;;;;;;;28.13;20.63;;;;;;;25.00;33.48;99403.28;5093196;28;20067;-81
2021/07/08 06:30:11;;;;;;;30.67;20.52;;;;;;;24.98;33.74;99385.44;5074901;28;20040;-78
2021/07/08 06:32:37;;;;;;;34.00;20.85;;;;;;;25.26;33.15;99388.69;5093431;28;20095;-78
2021/07/08 06:35:06;;;;;;;38.92;22.27;;;;;;;25.25;33.23;99387.03;5075192;28;20044;-80
2021/07/08 06:37:32;;;;;;;63.17;26.48;;;;;;;25.21;32.35;99385.78;5059483;28;20109;-78
2021/07/08 06:39:58;;;;;;;38.25;27.80;;;;;;;25.17;32.18;99373.59;5103269;28;20501;-79
2021/07/08 06:42:27;;;;;;;38.47;26.58;;;;;;;25.17;32.28;99384.53;5072297;28;20036;-81
2021/07/08 06:45:05;;;;;;;42.58;26.05;;;;;;;25.14;32.87;99365.81;5058219;28;20406;-79
2021/07/08 06:47:49;;;;;;;48.38;28.85;;;;;;;25.51;31.74;99363.34;5028041;28;20598;-81
2021/07/08 06:50:40;;;;;;;40.08;27.33;;;;;;;25.82;31.42;99368.00;5060733;28;20097;-80
2021/07/08 06:53:38;;;;;;;54.80;28.15;;;;;;;25.37;31.37;99363.41;5033757;28;20464;-79
2021/07/08 06:56:09;;;;;;;37.33;26.35;;;;;;;25.86;31.60;99361.88;5040865;28;20078;-79
2021/07/08 06:58:44;;;;;;;;;;;;;;;26.59;30.65;99379.59;5024542;28;20044;-79
2021/07/08 07:01:34;;;;;;;40.38;26.02;;;;;;;26.63;29.99;99369.91;5072627;28;19915;-77
2021/07/08 07:04:06;;;;;;;42.42;25.58;;;;;;;26.86;30.01;99359.09;5041382;28;20043;-78
2021/07/08 07:06:40;;;;;;;43.13;26.35;;;;;;;27.01;29.65;99368.84;5090735;28;20457;-78
2021/07/08 07:09:19;;;;;;;38.78;25.70;;;;;;;26.80;30.03;99379.19;5058694;28;20040;-80
2021/07/08 07:11:56;;;;;;;47.08;25.33;;;;;;;26.75;30.17;99368.06;5060454;28;20047;-79
2021/07/08 07:14:36;;;;;;;;;;;;;;;;;;;;;
2021/07/08 07:18:04;;;;;;;36.85;24.33;;;;;;;26.79;30.51;99366.56;5065416;28;20058;-86
2021/07/08 07:20:33;;;;;;;36.42;24.42;;;;;;;27.41;29.87;99362.88;5041435;28;20048;-90
2021/07/08 07:23:11;;;;;;;44.80;25.95;;;;;;;27.32;29.59;99360.47;5040460;28;20126;-81
2021/07/08 07:25:41;;;;;;;37.05;24.15;;;;;;;27.36;29.32;99363.56;5006841;28;20384;-80
2021/07/08 07:28:10;;;;;;;34.05;24.27;;;;;;;27.80;28.94;99356.84;5040534;28;20422;-80
2021/07/08 07:30:57;;;;;;;42.25;24.52;;;;;;;28.06;28.53;99347.38;5030362;28;20040;-78
2021/07/08 07:33:32;;;;;;;39.95;27.25;;;;;;;28.21;27.89;99352.41;5023391;28;20054;-79
2021/07/08 07:36:07;;;;;;;39.55;27.08;;;;;;;27.60;28.22;99351.59;5024832;28;20048;-80
2021/07/08 07:38:54;;;;;;;39.20;27.10;;;;;;;27.73;28.69;99360.75;5074120;28;20039;-79
2021/07/08 07:41:29;;;;;;;;;;;;;;;27.96;28.36;99369.06;5061160;28;20055;-78
2021/07/08 07:44:48;;;;;;;36.58;25.30;;;;;;;28.18;28.10;99358.38;5073402;28;20013;-80
2021/07/08 07:47:27;;;;;;;33.60;25.02;;;;;;;27.34;28.66;99360.22;5055388;28;20788;-80
2021/07/08 07:50:55;;;;;;;38.40;25.48;;;;;;;26.96;29.26;99339.34;5054180;28;20558;-79
2021/07/08 07:53:33;;;;;;;37.35;22.80;;;;;;;27.30;28.80;99350.75;5039743;28;20044;-81
2021/07/08 07:56:01;;;;;;;32.60;22.98;;;;;;;27.44;28.83;99346.78;5038797;28;20475;-80
2021/07/08 07:58:31;;;;;;;39.03;23.63;;;;;;;27.77;28.41;99349.06;5040627;28;20097;-80
2021/07/08 08:00:59;;;;;;;39.90;22.98;;;;;;;27.65;28.41;99334.44;5059738;28;20124;-78
2021/07/08 08:03:29;;;;;;;29.13;22.83;;;;;;;27.33;28.63;99342.91;5060534;28;20046;-79
2021/07/08 08:09:15;;;;;;;35.28;24.38;;;;;;;28.06;27.94;99352.84;5065022;28;20072;-79
2021/07/08 08:11:42;;;;;;;35.97;24.70;;;;;;;27.95;27.41;99347.34;5059358;28;20050;-80
2021/07/08 08:14:11;;;;;;;33.33;24.85;;;;;;;27.87;27.48;99344.91;5039648;28;20060;-80
2021/07/08 08:16:37;;;;;;;39.05;25.23;;;;;;;27.72;28.14;99348.94;5090037;28;20059;-80
2021/07/08 08:19:03;;;;;;;37.30;26.35;;;;;;;27.42;28.54;99353.56;5090512;28;20048;-81
2021/07/08 08:21:29;;;;;;;32.63;25.15;;;;;;;27.40;28.85;99348.31;5041966;28;20044;-81
2021/07/08 08:23:55;;;;;;;42.28;22.65;;;;;;;27.58;29.10;99340.03;5057661;28;20577;-81
2021/07/08 08:26:21;;;;;;;36.50;21.25;;;;;;;27.72;29.02;99348.94;5074133;28;20135;-80
2021/07/08 08:28:51;;;;;;;43.45;28.50;;;;;;;27.69;27.95;99335.66;5041201;28;20044;-82
2021/07/08 08:31:17;;;;;;;47.65;30.70;;;;;;;27.75;26.85;99337.47;5090731;28;20044;-83
2021/07/08 08:33:43;;;;;;;46.55;32.30;;;;;;;27.54;26.14;99333.34;5074324;28;20051;-82
2021/07/08 08:36:09;;;;;;;48.60;28.75;;;;;;;27.50;27.94;99339.53;5075497;28;20047;-82
2021/07/08 08:38:34;;;;;;;32.20;23.48;;;;;;;27.77;28.13;99343.59;5057517;28;20423;-83
2021/07/08 08:41:01;;;;;;;34.45;23.70;;;;;;;28.07;27.54;99332.53;5074142;28;20135;-82
2021/07/08 08:43:26;;;;;;;31.45;21.15;;;;;;;28.23;27.39;99327.41;5085801;28;20522;-82
2021/07/08 08:45:53;;;;;;;31.92;21.85;;;;;;;28.43;27.64;99321.56;5076502;28;20125;-82
2021/07/08 08:48:18;;;;;;;31.88;20.98;;;;;;;28.79;27.01;99326.81;5057718;28;20092;-81
2021/07/08 08:50:46;;;;;;;26.55;19.23;;;;;;;29.02;26.41;99320.44;5076220;28;20503;-83
2021/07/08 08:53:13;;;;;;;27.73;17.05;;;;;;;28.69;27.04;99326.56;5058381;28;20056;-81
2021/07/08 08:55:39;;;;;;;25.88;16.67;;;;;;;28.71;27.42;99316.19;5074223;28;20067;-83
2021/07/08 08:58:10;;;;;;;23.77;14.73;;;;;;;28.67;27.49;99322.41;5057185;28;20447;-81
2021/07/08 09:00:36;;;;;;;21.05;14.68;;;;;;;28.77;27.43;99317.97;5057276;28;20097;-81
2021/07/08 09:03:03;;;;;;;18.23;11.68;;;;;;;29.05;27.24;99330.16;5076474;28;20138;-81
2021/07/08 09:05:29;;;;;;;15.70;10.43;;;;;;;29.09;26.91;99319.47;5059091;28;20048;-80
2021/07/08 09:08:09;;;;;;;20.80;12.35;;;;;;;28.96;27.40;99309.53;5076706;28;20074;-80
2021/07/08 09:10:35;;;;;;;14.98;9.60;;;;;;;28.66;27.60;99310.59;5022420;28;20040;-82
2021/07/08 09:13:01;;;;;;;17.65;8.88;;;;;;;28.54;27.58;99307.00;5078368;28;20047;-82
2021/07/08 09:15:27;;;;;;;14.95;8.98;;;;;;;28.01;28.15;99307.91;5108597;28;20098;-81
2021/07/08 09:17:53;;;;;;;16.02;10.25;;;;;;;28.16;28.48;99315.69;5115735;28;20134;-81
2021/07/08 09:20:20;;;;;;;14.13;10.25;;;;;;;28.33;28.19;99301.00;5081039;28;20051;-82
2021/07/08 09:22:46;;;;;;;14.80;8.68;;;;;;;28.37;27.82;99300.53;5081488;28;20036;-83
2021/07/08 09:25:32;;;;;;;15.40;8.68;;;;;;;28.18;28.35;99308.91;5098101;28;20070;-84
2021/07/08 09:28:21;;;;;;;10.32;7.15;;;;;;;28.20;27.87;99295.72;5080314;28;20508;-82
2021/07/08 09:31:03;;;;;;;16.08;7.03;;;;;;;28.28;28.13;99284.41;5080446;28;20039;-84
2021/07/08 09:33:39;;;;;;;14.18;7.63;;;;;;;28.24;27.86;99291.44;5098172;28;20047;-82
2021/07/08 09:36:15;;;;;;;19.20;7.50;;;;;;;28.11;27.75;99291.69;5079969;28;20043;-78
2021/07/08 09:38:46;;;;;;;15.10;7.38;;;;;;;28.02;27.57;99293.09;5115235;28;20051;-77
2021/07/08 09:41:17;;;;;;;15.38;7.40;;;;;;;28.19;27.76;99287.75;5063543;28;20043;-78
2021/07/08 09:43:44;;;;;;;10.52;6.90;;;;;;;28.30;27.42;99279.50;5096299;28;20059;-78
2021/07/08 09:46:11;;;;;;;10.02;6.88;;;;;;;28.04;27.33;99274.47;5096616;28;20072;-78
2021/07/08 09:48:37;;;;;;;11.75;7.05;;;;;;;27.98;27.56;99286.41;5063162;28;20047;-77
2021/07/08 09:51:03;;;;;;;14.50;6.88;;;;;;;28.30;27.27;99271.25;5096816;28;20039;-77
2021/07/08 09:53:30;;;;;;;9.98;6.75;;;;;;;28.24;27.22;99272.19;5096803;28;20084;-77
2021/07/08 09:58:30;;;;;;;13.95;7.10;;;;;;;28.01;27.97;99262.03;5115280;28;20043;-77
2021/07/08 10:00:56;;;;;;;14.40;6.40;;;;;;;28.43;27.30;99267.44;5079509;28;20439;-78
2021/07/08 10:03:23;;;;;;;16.50;6.35;;;;;;;28.56;26.91;99263.59;5090047;28;20096;-79
2021/07/08 10:05:49;;;;;;;13.32;5.38;;;;;;;28.71;26.50;99246.59;5045887;28;20048;-78
2021/07/08 10:08:15;;;;;;;12.55;5.60;;;;;;;28.75;25.95;99262.34;5042866;28;20048;-77
2021/07/08 10:10:41;;;;;;;8.43;4.90;;;;;;;28.61;26.33;99247.19;5076186;28;20128;-78
2021/07/08 10:13:08;;;;;;;11.32;5.25;;;;;;;28.72;26.42;99249.09;5026406;28;20035;-78
2021/07/08 10:15:37;;;;;;;8.82;4.97;;;;;;;28.73;26.33;99242.50;5055753;28;20056;-80
2021/07/08 10:18:04;;;;;;;16.73;5.07;;;;;;;28.72;26.11;99243.59;5072660;28;20048;-77
2021/07/08 10:20:30;;;;;;;6.35;4.30;;;;;;;29.03;26.32;99244.22;5072148;28;20503;-76
2021/07/08 10:22:58;;;;;;;8.02;4.40;;;;;;;29.41;25.78;99239.97;5022106;28;20066;-80
2021/07/08 10:25:23;;;;;;;9.80;4.05;;;;;;;29.83;25.37;99239.63;5072051;28;20055;-79
2021/07/08 10:27:49;;;;;;;13.48;3.72;;;;;;;29.89;25.14;99219.31;5073679;28;20052;-78
2021/07/08 10:30:18;;;;;;;11.05;3.70;;;;;;;30.24;25.32;99230.09;5054675;28;20436;-78
2021/07/08 10:32:43;;;;;;;;;;;;;;;30.04;25.03;99221.47;5025564;28;20032;-77
2021/07/08 10:35:09;;;;;;;9.77;3.88;;;;;;;30.36;24.98;99224.47;5080598;28;20260;-78
2021/07/08 10:37:37;;;;;;;10.48;3.47;;;;;;;30.25;25.14;99215.22;5072626;28;20407;-79
2021/07/08 10:40:04;;;;;;;9.18;3.20;;;;;;;30.48;25.46;99216.91;5082021;28;20043;-77
2021/07/08 10:42:49;;;;;;;5.88;3.08;;;;;;;30.53;24.62;99203.16;5095295;28;20097;-77
2021/07/08 10:45:21;;;;;;;6.53;2.95;;;;;;;30.39;25.01;99201.88;5113167;28;20036;-82
2021/07/08 10:47:48;;;;;;;7.38;3.08;;;;;;;30.47;24.81;99195.94;5112858;28;20040;-84
2021/07/08 10:50:33;;;;;;;9.70;2.72;;;;;;;30.27;24.41;99204.75;5096368;28;20503;-84
2021/07/08 10:53:17;;;;;;;3.95;2.53;;;;;;;30.52;24.55;99190.47;5114973;28;20401;-86
2021/07/08 10:55:45;;;;;;;7.43;2.30;;;;;;;30.75;24.44;99188.56;5064972;28;20032;-84
2021/07/08 10:58:37;;;;;;;7.90;2.50;;;;;;;30.70;24.39;99181.88;5055646;28;20033;-84
2021/07/08 11:01:04;;;;;;;8.20;2.58;;;;;;;30.82;24.10;99189.19;5053936;28;20407;-80
2021/07/08 11:03:45;;;;;;;9.75;2.47;;;;;;;30.82;24.38;99183.69;5053803;28;20079;-81
2021/07/08 11:06:28;;;;;;;9.10;2.63;;;;;;;31.31;24.12;99180.88;5054070;28;20036;-82
2021/07/08 11:09:07;;;;;;;5.75;2.50;;;;;;;31.74;23.55;99173.50;5040357;28;20434;-81
2021/07/08 11:11:33;;;;;;;7.55;2.50;;;;;;;32.14;23.60;99171.00;5071773;28;20054;-81
2021/07/08 11:14:09;;;;;;;11.63;2.20;;;;;;;32.15;23.19;99153.31;5075847;28;20498;-81
2021/07/08 11:16:48;;;;;;;7.63;2.30;;;;;;;32.72;22.72;99162.69;5074317;28;20137;-81
2021/07/08 11:19:23;;;;;;;5.20;2.35;;;;;;;32.37;22.64;99158.69;5058629;28;20131;-81
2021/07/08 11:21:55;;;;;;;8.77;2.90;;;;;;;32.50;22.17;99176.75;5074405;28;20507;-80
2021/07/08 11:24:37;;;;;;;12.13;2.88;;;;;;;32.43;22.36;99158.75;5047365;28;20048;-80
2021/07/08 11:27:07;;;;;;;20.02;3.25;;;;;;;32.44;22.24;99158.47;5061259;28;20043;-80
2021/07/08 11:29:39;;;;;;;13.50;3.33;;;;;;;32.58;22.44;99145.81;5045283;28;20050;-80
2021/07/08 11:32:25;;;;;;;10.35;2.70;;;;;;;33.85;21.45;99158.13;5073299;28;20047;-80
2021/07/08 11:34:59;;;;;;;10.07;2.80;;;;;;;34.26;21.08;99147.78;5057673;28;20048;-79
2021/07/08 11:37:40;;;;;;;9.65;2.80;;;;;;;34.84;20.29;99146.44;5046553;28;20081;-79
2021/07/08 11:40:11;;;;;;;15.38;3.25;;;;;;;35.25;19.95;99135.91;5031709;28;20046;-81
2021/07/08 11:42:39;;;;;;;26.92;3.72;;;;;;;34.54;20.01;99126.88;5060905;28;20079;-81